Time;durP1;ratioP1;P1;durP2;ratioP2;P2;SDS_P1;SDS_P2;PMS_P1;PMS_P2;Temp;Humidity;BMP_temperature;BMP_pressure;BME280_temperature;BME280_humidity;BME280_pressure;Samples;Min_cycle;Max_cycle;Signal;HPM_P1;HPM_P2
2021/05/20 00:01:07;;;;;;;4.82;3.00;;;9.90;92.50;;;;;;5093852;28;20044;-96
2021/05/20 00:03:33;;;;;;;4.95;3.10;;;9.90;92.60;;;;;;5093641;28;20416;-94
2021/05/20 00:05:59;;;;;;;4.95;3.10;;;9.90;92.60;;;;;;5093104;28;20415;-94
2021/05/20 00:08:25;;;;;;;5.10;3.25;;;9.80;92.70;;;;;;5095716;28;20059;-94
2021/05/20 00:10:51;;;;;;;5.30;3.28;;;9.80;92.70;;;;;;5098272;28;20048;-95
2021/05/20 00:13:17;;;;;;;5.30;3.10;;;9.70;92.80;;;;;;5098292;28;20468;-95
2021/05/20 00:15:42;;;;;;;4.15;2.85;;;9.70;92.80;;;;;;5098192;28;20044;-94
2021/05/20 00:18:08;;;;;;;4.57;3.22;;;9.70;92.90;;;;;;5097458;28;20075;-94
2021/05/20 00:20:34;;;;;;;4.97;3.40;;;9.70;92.90;;;;;;5097540;28;20071;-94
2021/05/20 00:22:59;;;;;;;4.78;3.33;;;9.60;92.90;;;;;;5097292;28;20052;-93
2021/05/20 00:25:25;;;;;;;4.75;3.40;;;9.60;92.90;;;;;;5097866;28;20052;-94
2021/05/20 00:27:51;;;;;;;5.20;3.50;;;9.50;92.90;;;;;;5097571;28;20052;-94
2021/05/20 00:30:17;;;;;;;4.80;3.25;;;9.50;93.00;;;;;;5097211;28;20049;-93
2021/05/20 00:32:43;;;;;;;4.22;3.10;;;9.50;93.10;;;;;;5096786;28;20052;-93
2021/05/20 00:35:09;;;;;;;5.57;3.72;;;9.50;93.00;;;;;;5096993;28;20512;-94
2021/05/20 00:37:35;;;;;;;5.00;3.38;;;9.50;93.10;;;;;;5097337;28;20051;-94
2021/05/20 00:40:02;;;;;;;5.40;3.63;;;9.40;93.30;;;;;;5097387;28;20407;-94
2021/05/20 00:42:28;;;;;;;4.63;3.30;;;9.40;93.20;;;;;;5098021;28;20059;-93
2021/05/20 00:44:59;;;;;;;5.03;3.17;;;9.40;93.10;;;;;;5098972;28;20044;-93
2021/05/20 00:47:29;;;;;;;4.80;3.40;;;9.40;93.10;;;;;;5100124;28;20048;-94
2021/05/20 00:49:54;;;;;;;5.07;3.47;;;9.30;93.10;;;;;;5104275;28;20506;-94
2021/05/20 00:52:20;;;;;;;4.82;3.45;;;9.30;93.00;;;;;;5101133;28;20048;-95
2021/05/20 00:54:58;;;;;;;7.75;3.72;;;9.30;93.20;;;;;;5102483;28;20043;-94
2021/05/20 00:57:24;;;;;;;5.63;3.97;;;9.20;93.30;;;;;;5102210;28;20067;-93
2021/05/20 00:59:51;;;;;;;4.72;3.17;;;9.20;93.40;;;;;;5098613;28;20040;-94
2021/05/20 01:02:18;;;;;;;5.45;3.90;;;9.20;93.30;;;;;;5097134;28;20380;-95
2021/05/20 01:04:44;;;;;;;4.80;3.72;;;9.20;93.30;;;;;;5096942;28;20052;-93
2021/05/20 01:07:09;;;;;;;5.75;4.00;;;9.20;93.40;;;;;;5096776;28;20062;-94
2021/05/20 01:09:35;;;;;;;5.20;3.90;;;9.10;93.30;;;;;;5097006;28;20490;-95
2021/05/20 01:12:02;;;;;;;6.70;3.65;;;9.10;93.30;;;;;;5096442;28;20048;-93
2021/05/20 01:14:28;;;;;;;5.25;3.45;;;9.10;93.20;;;;;;5096545;28;20476;-94
2021/05/20 01:16:54;;;;;;;5.13;3.58;;;9.10;93.00;;;;;;5096324;28;20051;-94
2021/05/20 01:19:20;;;;;;;6.70;3.60;;;9.00;92.90;;;;;;5094965;28;20048;-95
2021/05/20 01:21:46;;;;;;;5.63;3.53;;;9.00;92.90;;;;;;5096673;28;20059;-94
2021/05/20 01:24:12;;;;;;;4.80;3.58;;;9.00;92.80;;;;;;5096508;28;20104;-94
2021/05/20 01:26:39;;;;;;;5.20;3.53;;;8.90;92.90;;;;;;5096583;28;20083;-94
2021/05/20 01:29:07;;;;;;;4.82;3.38;;;8.90;93.00;;;;;;5096471;28;20127;-94
2021/05/20 01:31:33;;;;;;;4.45;3.05;;;8.80;93.10;;;;;;5096040;28;20495;-95
2021/05/20 01:33:59;;;;;;;5.00;3.30;;;8.80;93.10;;;;;;5095926;28;20048;-94
2021/05/20 01:36:27;;;;;;;5.25;3.47;;;8.80;93.00;;;;;;5096483;28;20040;-94
2021/05/20 01:38:53;;;;;;;4.80;3.38;;;8.70;93.00;;;;;;5096033;28;20048;-94
2021/05/20 01:41:19;;;;;;;4.60;3.30;;;8.70;93.20;;;;;;5095860;28;20499;-95
2021/05/20 01:43:45;;;;;;;5.32;3.55;;;8.70;93.20;;;;;;5096240;28;20052;-94
2021/05/20 01:46:11;;;;;;;4.72;3.15;;;8.60;93.20;;;;;;5095451;28;20056;-95
2021/05/20 01:48:39;;;;;;;4.25;2.97;;;8.60;93.20;;;;;;5095794;28;20067;-94
2021/05/20 01:51:11;;;;;;;6.00;3.22;;;8.60;93.10;;;;;;5095535;28;20127;-95
2021/05/20 01:53:39;;;;;;;4.40;3.10;;;8.50;93.20;;;;;;5095902;28;20526;-94
2021/05/20 01:56:06;;;;;;;7.13;3.38;;;8.50;93.60;;;;;;5095078;28;20048;-95
2021/05/20 01:58:34;;;;;;;4.20;2.92;;;8.50;93.40;;;;;;5095516;28;20044;-95
2021/05/20 02:01:00;;;;;;;5.20;3.00;;;8.50;93.30;;;;;;5095004;28;20044;-95
2021/05/20 02:03:26;;;;;;;3.88;2.60;;;8.40;93.30;;;;;;5095825;28;20044;-95
2021/05/20 02:05:52;;;;;;;4.13;2.78;;;8.40;93.40;;;;;;5095230;28;20055;-94
2021/05/20 02:08:17;;;;;;;3.67;2.58;;;8.40;93.50;;;;;;5095223;28;20107;-93
2021/05/20 02:10:43;;;;;;;4.10;2.78;;;8.40;93.60;;;;;;5095469;28;20048;-94
2021/05/20 02:13:09;;;;;;;3.67;2.47;;;8.40;93.70;;;;;;5095204;28;20048;-93
2021/05/20 02:15:37;;;;;;;3.80;2.67;;;8.30;93.70;;;;;;5095101;28;20075;-92
2021/05/20 02:18:06;;;;;;;4.40;2.70;;;8.30;93.70;;;;;;5094949;28;20411;-91
2021/05/20 02:20:33;;;;;;;3.63;2.28;;;8.30;93.60;;;;;;5094563;28;20074;-91
2021/05/20 02:22:59;;;;;;;3.90;2.10;;;8.20;93.50;;;;;;5076455;28;20052;-91
2021/05/20 02:25:25;;;;;;;3.42;2.28;;;8.20;93.30;;;;;;5095202;28;20048;-91
2021/05/20 02:27:51;;;;;;;3.60;2.25;;;8.20;93.10;;;;;;5095196;28;20052;-90
2021/05/20 02:30:17;;;;;;;2.95;1.90;;;8.20;93.10;;;;;;5094683;28;20044;-92
2021/05/20 02:32:43;;;;;;;4.10;2.67;;;8.10;93.00;;;;;;5095478;28;20066;-93
2021/05/20 02:35:10;;;;;;;5.15;2.45;;;8.10;93.00;;;;;;5094842;28;20040;-93
2021/05/20 02:37:37;;;;;;;4.05;2.50;;;8.00;93.10;;;;;;5094642;28;20411;-93
2021/05/20 02:40:04;;;;;;;3.97;2.30;;;8.00;93.10;;;;;;5094580;28;20040;-92
2021/05/20 02:42:32;;;;;;;4.30;2.60;;;8.00;93.10;;;;;;5094701;28;20492;-93
2021/05/20 02:44:57;;;;;;;4.47;2.95;;;7.90;93.00;;;;;;5094212;28;20106;-93
2021/05/20 02:47:23;;;;;;;4.07;2.75;;;7.90;93.20;;;;;;5094597;28;20052;-92
2021/05/20 02:49:49;;;;;;;3.78;2.53;;;7.90;93.20;;;;;;5094465;28;20044;-92
2021/05/20 02:52:15;;;;;;;4.15;2.70;;;7.80;93.30;;;;;;5093763;28;20058;-93
2021/05/20 02:54:41;;;;;;;4.50;2.83;;;7.80;93.30;;;;;;5094629;28;20089;-93
2021/05/20 02:57:08;;;;;;;4.72;3.05;;;7.80;93.40;;;;;;5094148;28;20043;-92
2021/05/20 02:59:35;;;;;;;4.30;2.90;;;7.80;93.60;;;;;;5094465;28;20079;-94
2021/05/20 03:02:04;;;;;;;4.82;3.15;;;7.80;93.60;;;;;;5094127;28;20048;-92
2021/05/20 03:04:31;;;;;;;5.00;2.92;;;7.70;93.60;;;;;;5094041;28;20055;-93
2021/05/20 03:06:57;;;;;;;4.43;2.97;;;7.80;93.60;;;;;;5094188;28;20132;-93
2021/05/20 03:09:23;;;;;;;4.50;3.20;;;7.80;93.70;;;;;;5093777;28;20051;-94
2021/05/20 03:11:49;;;;;;;6.25;3.42;;;7.80;93.70;;;;;;5093583;28;20044;-93
2021/05/20 03:14:15;;;;;;;5.05;3.40;;;7.80;93.70;;;;;;5093463;28;20052;-93
2021/05/20 03:16:41;;;;;;;6.00;3.33;;;7.80;93.70;;;;;;5093919;28;20051;-93
2021/05/20 03:19:08;;;;;;;5.40;3.88;;;7.80;93.60;;;;;;5093631;28;20044;-93
2021/05/20 03:21:34;;;;;;;5.03;3.67;;;7.70;93.70;;;;;;5094143;28;20411;-93
2021/05/20 03:23:59;;;;;;;5.47;3.85;;;7.70;93.70;;;;;;5093632;28;20044;-93
2021/05/20 03:26:25;;;;;;;6.82;3.72;;;7.70;93.60;;;;;;5093948;28;20058;-93
2021/05/20 03:28:51;;;;;;;6.43;4.68;;;7.70;93.60;;;;;;5094211;28;20097;-93
2021/05/20 03:31:16;;;;;;;6.55;4.85;;;7.70;93.60;;;;;;5093627;28;20051;-93
2021/05/20 03:33:43;;;;;;;6.63;4.60;;;7.70;93.70;;;;;;5093690;28;20044;-93
2021/05/20 03:36:09;;;;;;;6.03;4.45;;;7.70;93.60;;;;;;5094026;28;20051;-93
2021/05/20 03:38:35;;;;;;;6.80;5.00;;;7.70;93.40;;;;;;5094068;28;20392;-92
2021/05/20 03:41:01;;;;;;;8.57;5.50;;;7.60;93.20;;;;;;5093038;28;20158;-93
2021/05/20 03:43:36;;;;;;;8.25;5.88;;;7.60;93.10;;;;;;5093533;28;20056;-92
2021/05/20 03:46:01;;;;;;;7.85;5.80;;;7.60;93.20;;;;;;5092815;28;20108;-93
2021/05/20 03:48:29;;;;;;;8.00;6.05;;;7.60;93.20;;;;;;5093135;28;20056;-92
2021/05/20 03:50:58;;;;;;;8.20;6.57;;;7.60;93.10;;;;;;5092850;28;20500;-93
2021/05/20 03:53:30;;;;;;;8.55;6.55;;;7.60;93.30;;;;;;5093898;28;20052;-93
2021/05/20 03:55:59;;;;;;;8.95;6.72;;;7.60;93.30;;;;;;5093319;28;20476;-93
2021/05/20 03:58:26;;;;;;;9.23;6.45;;;7.60;93.30;;;;;;5093718;28;20135;-93
2021/05/20 04:00:52;;;;;;;9.05;7.05;;;7.60;93.20;;;;;;5093151;28;20530;-92
2021/05/20 04:03:22;;;;;;;9.13;7.43;;;7.60;93.20;;;;;;5093895;28;20044;-92
2021/05/20 04:05:50;;;;;;;9.18;7.60;;;7.60;93.30;;;;;;5093535;28;20180;-94
2021/05/20 04:08:16;;;;;;;9.63;7.60;;;7.60;93.30;;;;;;5092452;28;20143;-92
2021/05/20 04:10:42;;;;;;;9.30;7.13;;;7.50;93.10;;;;;;5093141;28;20127;-94
2021/05/20 04:13:07;;;;;;;9.40;7.38;;;7.60;93.10;;;;;;5093523;28;20051;-93
2021/05/20 04:15:33;;;;;;;9.95;8.02;;;7.60;93.00;;;;;;5093310;28;20052;-93
2021/05/20 04:17:59;;;;;;;9.23;8.00;;;7.60;93.10;;;;;;5093100;28;20556;-92
2021/05/20 04:20:24;;;;;;;9.93;7.53;;;7.60;93.30;;;;;;5093204;28;20064;-91
2021/05/20 04:22:50;;;;;;;9.35;7.85;;;7.60;93.40;;;;;;5093052;28;20048;-92
2021/05/20 04:25:16;;;;;;;10.00;7.75;;;7.60;93.40;;;;;;5092812;28;20123;-92
2021/05/20 04:27:41;;;;;;;10.90;7.85;;;7.70;93.60;;;;;;5092848;28;20414;-92
2021/05/20 04:30:08;;;;;;;10.10;8.23;;;7.70;93.50;;;;;;5092280;28;20051;-93
2021/05/20 04:32:33;;;;;;;10.07;8.25;;;7.70;93.50;;;;;;5092930;28;20458;-92
2021/05/20 04:34:59;;;;;;;10.75;8.63;;;7.70;93.50;;;;;;5093217;28;20044;-92
2021/05/20 04:37:25;;;;;;;10.20;8.38;;;7.80;93.60;;;;;;5092817;28;20055;-92
2021/05/20 04:39:54;;;;;;;11.80;8.95;;;7.80;93.60;;;;;;5088047;28;20044;-91
2021/05/20 04:42:20;;;;;;;13.50;8.98;;;7.80;93.60;;;;;;5080803;28;20040;-91
2021/05/20 04:44:48;;;;;;;10.48;8.25;;;7.80;93.60;;;;;;5082503;28;20162;-92
2021/05/20 04:47:13;;;;;;;9.95;8.60;;;7.80;93.50;;;;;;5085555;28;20051;-92
2021/05/20 04:49:39;;;;;;;9.90;8.55;;;7.80;93.50;;;;;;5092742;28;20109;-91
2021/05/20 04:52:05;;;;;;;10.07;8.52;;;7.90;93.50;;;;;;5091896;28;20503;-92
2021/05/20 04:54:30;;;;;;;10.25;8.85;;;7.90;93.30;;;;;;5093127;28;20032;-92
2021/05/20 04:56:56;;;;;;;9.48;8.48;;;7.90;93.30;;;;;;5095446;28;20541;-92
2021/05/20 04:59:21;;;;;;;10.75;8.75;;;7.90;93.20;;;;;;5096233;28;20036;-92
2021/05/20 05:01:47;;;;;;;10.73;8.32;;;7.90;93.20;;;;;;5095923;28;20040;-91
2021/05/20 05:04:13;;;;;;;9.20;7.93;;;7.90;93.20;;;;;;5095579;28;20066;-94
2021/05/20 05:06:38;;;;;;;10.60;8.77;;;7.90;93.10;;;;;;5096698;28;20036;-91
2021/05/20 05:09:04;;;;;;;9.25;8.25;;;8.00;93.10;;;;;;5096091;28;20077;-92
2021/05/20 05:11:30;;;;;;;12.27;9.23;;;8.00;93.00;;;;;;5096747;28;20047;-92
2021/05/20 05:13:56;;;;;;;10.93;9.05;;;8.00;93.00;;;;;;5096688;28;20055;-92
2021/05/20 05:16:21;;;;;;;11.57;8.80;;;8.00;93.10;;;;;;5096453;28;20056;-91
2021/05/20 05:18:47;;;;;;;9.15;8.20;;;8.00;93.00;;;;;;5095806;28;20059;-91
2021/05/20 05:21:13;;;;;;;9.70;8.70;;;8.10;93.00;;;;;;5112714;28;20063;-92
2021/05/20 05:23:39;;;;;;;33.60;10.48;;;8.10;92.90;;;;;;5116771;28;20070;-92
2021/05/20 05:26:05;;;;;;;10.23;8.95;;;8.10;93.00;;;;;;5115972;28;20043;-90
2021/05/20 05:28:30;;;;;;;19.88;11.38;;;8.10;93.00;;;;;;5108422;28;20484;-92
2021/05/20 05:30:56;;;;;;;23.27;11.10;;;8.20;93.20;;;;;;5095067;28;20502;-86
2021/05/20 05:33:23;;;;;;;20.75;12.20;;;8.20;93.30;;;;;;5093620;28;20126;-86
2021/05/20 05:35:49;;;;;;;15.63;10.93;;;8.20;93.30;;;;;;5093653;28;20047;-85
2021/05/20 05:38:15;;;;;;;16.63;10.68;;;8.30;93.30;;;;;;5094888;28;20048;-85
2021/05/20 05:40:42;;;;;;;51.28;14.70;;;8.30;93.10;;;;;;5094131;28;20078;-91
2021/05/20 05:43:08;;;;;;;53.60;14.73;;;8.30;93.30;;;;;;5094911;28;20500;-88
2021/05/20 05:45:34;;;;;;;18.05;11.00;;;8.40;93.60;;;;;;5100758;28;20074;-89
2021/05/20 05:48:00;;;;;;;45.00;14.88;;;8.40;93.50;;;;;;5090246;28;20068;-87
2021/05/20 05:50:27;;;;;;;22.33;16.35;;;8.40;93.50;;;;;;5076172;28;20166;-87
2021/05/20 05:52:53;;;;;;;84.38;19.17;;;8.50;93.70;;;;;;5074610;28;20045;-88
2021/05/20 05:55:18;;;;;;;13.95;11.85;;;8.50;93.90;;;;;;5074523;28;20044;-88
2021/05/20 05:57:44;;;;;;;18.33;13.05;;;8.50;93.80;;;;;;5090301;28;20074;-86
2021/05/20 06:00:11;;;;;;;26.95;16.27;;;8.60;93.60;;;;;;5094895;28;20054;-91
2021/05/20 06:02:36;;;;;;;26.65;16.83;;;8.60;93.70;;;;;;5097448;28;20048;-96
2021/05/20 06:05:04;;;;;;;22.85;14.68;;;8.60;93.90;;;;;;5102598;28;20067;-95
2021/05/20 06:07:34;;;;;;;32.10;19.85;;;8.70;93.90;;;;;;5099964;28;20051;-95
2021/05/20 06:10:04;;;;;;;22.80;17.63;;;8.70;94.10;;;;;;5102278;28;20116;-95
2021/05/20 06:12:32;;;;;;;33.53;22.08;;;8.80;94.10;;;;;;5101454;28;20048;-96
2021/05/20 06:14:58;;;;;;;19.17;16.50;;;8.80;94.30;;;;;;5101818;28;20063;-95
2021/05/20 06:17:23;;;;;;;20.42;16.98;;;8.90;94.20;;;;;;5107493;28;20048;-94
2021/05/20 06:19:49;;;;;;;39.97;19.42;;;8.90;94.30;;;;;;5099674;28;20044;-95
2021/05/20 06:22:15;;;;;;;47.90;22.58;;;8.90;94.30;;;;;;5080949;28;20079;-96
2021/05/20 06:24:42;;;;;;;33.72;23.42;;;9.00;94.60;;;;;;5084948;28;20458;-95
2021/05/20 06:27:08;;;;;;;21.80;19.02;;;9.10;94.70;;;;;;5084121;28;20049;-96
2021/05/20 06:29:34;;;;;;;37.00;23.83;;;9.10;94.60;;;;;;5082646;28;20120;-96
2021/05/20 06:31:59;;;;;;;25.55;19.52;;;9.20;94.80;;;;;;5082757;28;20064;-95
2021/05/20 06:34:25;;;;;;;22.50;19.92;;;9.20;94.80;;;;;;5085079;28;20045;-95
2021/05/20 06:36:51;;;;;;;21.85;19.35;;;9.30;94.90;;;;;;5087426;28;20048;-94
2021/05/20 06:39:17;;;;;;;21.38;19.10;;;9.30;94.80;;;;;;5081375;28;20108;-93
2021/05/20 06:41:42;;;;;;;24.60;17.83;;;9.30;94.80;;;;;;5089095;28;20041;-95
2021/05/20 06:44:08;;;;;;;24.50;21.35;;;9.40;94.80;;;;;;5082024;28;20049;-96
2021/05/20 06:46:36;;;;;;;35.53;21.92;;;9.40;94.90;;;;;;5081666;28;20060;-94
2021/05/20 06:49:03;;;;;;;29.77;23.13;;;9.40;95.00;;;;;;5083325;28;20480;-93
2021/05/20 06:51:30;;;;;;;23.30;19.77;;;9.50;95.10;;;;;;5080134;28;20068;-95
2021/05/20 06:53:55;;;;;;;22.52;19.55;;;9.50;95.20;;;;;;5070301;28;20123;-88
2021/05/20 06:56:24;;;;;;;28.38;23.52;;;9.60;95.20;;;;;;5048721;28;20512;-83
2021/05/20 07:01:34;;;;;;;30.08;24.10;;;9.70;95.50;;;;;;5067832;28;20060;-85
2021/05/20 07:03:59;;;;;;;27.42;21.95;;;9.80;95.70;;;;;;5072029;28;20071;-85
2021/05/20 07:06:27;;;;;;;28.08;23.23;;;9.80;95.70;;;;;;5073008;28;20114;-87
2021/05/20 07:08:52;;;;;;;24.90;21.17;;;9.90;95.80;;;;;;5065416;28;20062;-86
2021/05/20 07:11:18;;;;;;;24.52;20.42;;;10.00;95.80;;;;;;5072286;28;20048;-86
2021/05/20 07:13:44;;;;;;;28.05;22.65;;;10.20;95.80;;;;;;5072490;28;20048;-85
2021/05/20 07:16:09;;;;;;;21.45;17.33;;;10.20;95.90;;;;;;5070338;28;20083;-86
2021/05/20 07:18:35;;;;;;;23.73;18.27;;;10.30;95.90;;;;;;5057713;28;20037;-86
2021/05/20 07:21:01;;;;;;;17.20;15.10;;;10.40;95.90;;;;;;5078997;28;20059;-86
2021/05/20 07:23:27;;;;;;;16.77;13.30;;;10.50;95.80;;;;;;5085788;28;20567;-87
2021/05/20 07:25:53;;;;;;;17.10;13.32;;;10.60;95.70;;;;;;5091712;28;20496;-87
2021/05/20 07:28:20;;;;;;;18.67;13.45;;;10.70;95.50;;;;;;5092674;28;20055;-87
2021/05/20 07:30:46;;;;;;;16.02;13.30;;;10.70;95.40;;;;;;5081209;28;20554;-86
2021/05/20 07:33:13;;;;;;;15.55;11.95;;;10.80;95.40;;;;;;5091647;28;20079;-86
2021/05/20 07:35:40;;;;;;;13.10;11.70;;;10.90;95.30;;;;;;5091990;28;20125;-88
2021/05/20 07:38:06;;;;;;;12.10;9.77;;;10.90;95.20;;;;;;5087280;28;20059;-86
2021/05/20 07:40:31;;;;;;;12.05;8.85;;;11.00;95.00;;;;;;5092205;28;20402;-86
2021/05/20 07:42:57;;;;;;;14.60;8.90;;;11.10;94.70;;;;;;5091691;28;20044;-90
2021/05/20 07:45:23;;;;;;;14.35;10.07;;;11.10;94.60;;;;;;5093091;28;20040;-88
2021/05/20 07:47:50;;;;;;;12.65;9.98;;;11.20;94.60;;;;;;5091880;28;20553;-87
2021/05/20 07:50:16;;;;;;;12.00;9.13;;;11.30;94.60;;;;;;5092019;28;20040;-89
2021/05/20 07:52:42;;;;;;;11.57;9.68;;;11.40;94.50;;;;;;5079887;28;20052;-86
2021/05/20 07:55:09;;;;;;;12.48;9.48;;;11.50;94.20;;;;;;5092669;28;20052;-88
2021/05/20 07:57:34;;;;;;;12.30;8.88;;;11.60;94.00;;;;;;5084743;28;20048;-85
2021/05/20 08:00:00;;;;;;;12.30;8.65;;;11.70;93.80;;;;;;5089451;28;20070;-88
2021/05/20 08:04:56;;;;;;;12.35;8.27;;;11.80;93.50;;;;;;5092366;28;20040;-87
2021/05/20 08:12:55;;;;;;;9.48;6.10;;;12.10;92.80;;;;;;5027506;28;20052;-88
2021/05/20 08:15:20;;;;;;;11.35;6.00;;;12.10;92.40;;;;;;5025576;28;20145;-88
2021/05/20 08:17:47;;;;;;;11.35;5.45;;;12.20;92.40;;;;;;5061888;28;20054;-88
2021/05/20 08:20:13;;;;;;;8.98;5.32;;;12.20;92.20;;;;;;5092127;28;20058;-88
2021/05/20 08:22:39;;;;;;;9.70;5.22;;;12.20;92.10;;;;;;5091204;28;20044;-88
2021/05/20 08:25:10;;;;;;;7.97;5.80;;;12.30;92.30;;;;;;5092053;28;20055;-87
2021/05/20 08:27:35;;;;;;;6.90;4.20;;;12.40;92.30;;;;;;5091918;28;20545;-87
2021/05/20 08:30:01;;;;;;;7.60;4.28;;;12.50;91.70;;;;;;5093341;28;20039;-84
2021/05/20 08:32:27;;;;;;;7.25;4.75;;;12.50;91.20;;;;;;5096186;28;20108;-86
2021/05/20 08:34:52;;;;;;;7.65;4.32;;;12.60;91.30;;;;;;5094977;28;20048;-85
2021/05/20 08:37:18;;;;;;;7.97;4.30;;;12.70;91.20;;;;;;5095914;28;20040;-85
2021/05/20 08:39:44;;;;;;;8.52;4.65;;;12.70;90.90;;;;;;5095738;28;20056;-84
2021/05/20 08:42:10;;;;;;;7.05;4.30;;;12.80;90.90;;;;;;5094861;28;20048;-84
2021/05/20 08:44:36;;;;;;;7.60;4.43;;;12.80;90.90;;;;;;5095609;28;20050;-85
2021/05/20 08:47:01;;;;;;;7.20;4.57;;;12.90;90.70;;;;;;5095815;28;20391;-84
2021/05/20 08:49:28;;;;;;;8.15;4.93;;;13.00;90.60;;;;;;5095104;28;20487;-84
2021/05/20 08:51:54;;;;;;;7.15;4.32;;;13.10;90.70;;;;;;5095013;28;20093;-82
2021/05/20 08:54:23;;;;;;;10.70;4.60;;;13.20;90.60;;;;;;5095651;28;20044;-85
2021/05/20 08:56:55;;;;;;;9.40;4.75;;;13.30;90.30;;;;;;5094921;28;20093;-87
2021/05/20 08:59:21;;;;;;;7.15;4.03;;;13.40;90.20;;;;;;5095923;28;20044;-87
2021/05/20 09:01:49;;;;;;;8.40;4.38;;;13.50;89.90;;;;;;5095730;28;20044;-85
2021/05/20 09:04:18;;;;;;;9.38;4.20;;;13.60;89.90;;;;;;5094779;28;20074;-86
2021/05/20 09:06:56;;;;;;;6.70;3.63;;;13.70;89.70;;;;;;5087340;28;20423;-86
2021/05/20 09:09:25;;;;;;;7.25;3.45;;;13.80;87.90;;;;;;5095874;28;20044;-88
2021/05/20 09:11:57;;;;;;;6.28;3.05;;;13.90;87.50;;;;;;5094671;28;20048;-86
2021/05/20 09:14:30;;;;;;;6.55;3.38;;;13.90;87.70;;;;;;5095803;28;20051;-86
2021/05/20 09:17:28;;;;;;;6.80;3.50;;;14.00;86.40;;;;;;5095265;28;20056;-87
2021/05/20 09:20:00;;;;;;;6.55;3.33;;;14.00;86.20;;;;;;5094777;28;20054;-87
2021/05/20 09:22:26;;;;;;;6.25;3.60;;;14.10;86.50;;;;;;5095358;28;20147;-89
2021/05/20 09:24:54;;;;;;;5.85;3.17;;;14.10;86.60;;;;;;5094103;28;20563;-86
2021/05/20 09:27:43;;;;;;;5.40;3.00;;;14.20;85.90;;;;;;5094946;28;20051;-87
2021/05/20 09:30:16;;;;;;;6.47;3.00;;;14.30;84.90;;;;;;5093975;28;20147;-88
2021/05/20 09:32:51;;;;;;;4.40;2.22;;;14.40;84.90;;;;;;5094149;28;20044;-86
2021/05/20 09:35:19;;;;;;;4.60;2.80;;;14.40;84.60;;;;;;5095053;28;20059;-86
2021/05/20 09:38:01;;;;;;;5.30;2.50;;;14.60;84.70;;;;;;5095126;28;20097;-86
2021/05/20 09:40:37;;;;;;;5.47;2.60;;;14.70;84.20;;;;;;5078375;28;20044;-88
2021/05/20 09:43:19;;;;;;;5.50;2.30;;;14.80;83.60;;;;;;5094728;28;20434;-86
2021/05/20 09:45:47;;;;;;;4.47;2.42;;;14.90;83.10;;;;;;5094253;28;20048;-86
2021/05/20 09:48:13;;;;;;;5.80;2.17;;;15.00;82.00;;;;;;5094731;28;20047;-87
2021/05/20 09:50:43;;;;;;;5.15;2.28;;;15.10;80.40;;;;;;5094569;28;20062;-84
2021/05/20 09:53:17;;;;;;;6.57;2.80;;;15.10;80.10;;;;;;5093950;28;20055;-85
2021/05/20 09:55:46;;;;;;;7.43;2.10;;;15.20;80.10;;;;;;5094700;28;20410;-85
2021/05/20 09:58:12;;;;;;;4.88;2.00;;;15.30;79.60;;;;;;5094299;28;20052;-85
2021/05/20 10:00:43;;;;;;;4.40;1.80;;;15.40;79.20;;;;;;5093980;28;20131;-86
2021/05/20 10:03:20;;;;;;;3.95;1.55;;;15.40;79.60;;;;;;5094396;28;20134;-84
2021/05/20 10:05:48;;;;;;;5.00;1.80;;;15.50;78.80;;;;;;5094836;28;20043;-85
2021/05/20 10:08:19;;;;;;;6.00;1.65;;;15.60;78.70;;;;;;5093230;28;20076;-84
2021/05/20 10:10:50;;;;;;;4.65;1.70;;;15.60;78.20;;;;;;5094428;28;20048;-83
2021/05/20 10:13:33;;;;;;;4.47;1.80;;;15.70;78.60;;;;;;5093698;28;20086;-85
2021/05/20 10:15:59;;;;;;;4.87;1.60;;;15.80;78.10;;;;;;5094040;28;20059;-85
2021/05/20 10:18:27;;;;;;;3.63;1.40;;;15.90;78.30;;;;;;5094022;28;20052;-84
2021/05/20 10:20:57;;;;;;;4.55;1.55;;;16.00;77.30;;;;;;5093095;28;20059;-85
2021/05/20 10:23:24;;;;;;;4.10;1.70;;;16.10;76.20;;;;;;5094041;28;20402;-86
2021/05/20 10:25:53;;;;;;;4.68;2.03;;;16.10;76.40;;;;;;5093588;28;20048;-86
2021/05/20 10:28:20;;;;;;;4.53;1.80;;;16.20;76.40;;;;;;5077525;28;20172;-86
2021/05/20 10:30:51;;;;;;;3.90;1.80;;;16.20;76.70;;;;;;5093688;28;20164;-90
2021/05/20 10:33:18;;;;;;;6.43;2.10;;;16.20;76.00;;;;;;5093892;28;20551;-86
2021/05/20 10:35:49;;;;;;;4.40;1.73;;;16.30;77.00;;;;;;5093073;28;20142;-87
2021/05/20 10:38:37;;;;;;;5.20;1.75;;;16.30;75.70;;;;;;5093907;28;20075;-86
2021/05/20 10:41:11;;;;;;;5.60;1.85;;;16.40;75.10;;;;;;5093464;28;20040;-85
2021/05/20 10:43:38;;;;;;;5.22;1.88;;;16.40;75.90;;;;;;5093269;28;20052;-83
2021/05/20 10:46:05;;;;;;;6.50;1.85;;;16.50;75.40;;;;;;5101069;28;20047;-84
2021/05/20 10:48:32;;;;;;;4.20;1.40;;;16.60;74.00;;;;;;5095901;28;20453;-85
2021/05/20 10:51:15;;;;;;;4.53;1.63;;;16.60;72.90;;;;;;5093020;28;20055;-84
2021/05/20 10:53:51;;;;;;;3.30;1.20;;;16.60;73.30;;;;;;5092255;28;20514;-86
2021/05/20 10:56:23;;;;;;;3.30;1.20;;;16.60;72.90;;;;;;5085675;28;20111;-84
2021/05/20 10:58:51;;;;;;;4.63;1.60;;;16.70;72.50;;;;;;5100572;28;20419;-84
2021/05/20 11:01:30;;;;;;;3.67;1.52;;;16.80;73.50;;;;;;5091667;28;20365;-85
2021/05/20 11:04:02;;;;;;;3.30;1.30;;;16.80;72.60;;;;;;5091779;28;20105;-86
2021/05/20 11:06:44;;;;;;;5.47;1.45;;;16.80;72.40;;;;;;5091322;28;20480;-86
2021/05/20 11:09:11;;;;;;;3.80;1.65;;;16.80;74.00;;;;;;5093207;28;20055;-85
2021/05/20 11:11:39;;;;;;;4.57;2.00;;;16.80;75.70;;;;;;5092517;28;20044;-83
2021/05/20 11:14:14;;;;;;;3.80;1.48;;;16.80;76.40;;;;;;5092339;28;20094;-85
2021/05/20 11:16:44;;;;;;;3.83;1.80;;;16.80;75.50;;;;;;5092557;28;20040;-82
2021/05/20 11:19:23;;;;;;;4.97;1.48;;;16.80;75.30;;;;;;5092767;28;20040;-85
2021/05/20 11:22:04;;;;;;;5.03;2.40;;;16.80;74.00;;;;;;5093160;28;20052;-86
2021/05/20 11:24:35;;;;;;;6.60;2.63;;;16.80;72.80;;;;;;5087106;28;20044;-87
2021/05/20 11:27:05;;;;;;;5.32;2.90;;;16.90;71.00;;;;;;5090971;28;20040;-86
2021/05/20 11:29:33;;;;;;;7.70;4.35;;;16.90;70.80;;;;;;5099178;28;20115;-87
2021/05/20 11:32:30;;;;;;;6.75;3.95;;;17.00;72.00;;;;;;5096303;28;20036;-85
2021/05/20 11:35:33;;;;;;;6.88;4.43;;;17.10;70.60;;;;;;5084872;28;20504;-88
2021/05/20 11:37:58;;;;;;;8.48;4.75;;;17.10;72.50;;;;;;5087394;28;20631;-88
2021/05/20 11:40:33;;;;;;;7.90;5.03;;;17.20;72.40;;;;;;5099881;28;20056;-87
2021/05/20 11:43:00;;;;;;;7.93;5.90;;;17.20;71.10;;;;;;5097254;28;20044;-88
2021/05/20 11:45:28;;;;;;;9.32;5.03;;;17.30;72.60;;;;;;5093051;28;20126;-86
2021/05/20 11:47:56;;;;;;;9.52;6.20;;;17.30;72.80;;;;;;5094883;28;20399;-87
2021/05/20 11:50:23;;;;;;;9.63;6.53;;;17.30;72.00;;;;;;5102603;28;20050;-88
2021/05/20 11:52:53;;;;;;;9.80;7.13;;;17.30;72.20;;;;;;5090186;28;20052;-85
2021/05/20 11:55:21;;;;;;;9.48;6.68;;;17.30;72.80;;;;;;5091208;28;20050;-85
2021/05/20 11:57:47;;;;;;;9.77;6.68;;;17.40;75.50;;;;;;5088326;28;20069;-85
2021/05/20 12:00:14;;;;;;;8.82;5.75;;;17.40;73.80;;;;;;5092554;28;20123;-84
2021/05/20 12:02:41;;;;;;;8.77;5.30;;;17.40;71.60;;;;;;5093151;28;20131;-84
2021/05/20 12:05:10;;;;;;;9.93;5.90;;;17.40;70.70;;;;;;5091301;28;20105;-84
2021/05/20 12:07:38;;;;;;;9.18;5.95;;;17.40;68.90;;;;;;5087544;28;20487;-84
2021/05/20 12:10:21;;;;;;;9.65;6.43;;;17.50;70.30;;;;;;5091451;28;20498;-84
2021/05/20 12:12:56;;;;;;;8.50;5.83;;;17.50;69.30;;;;;;5091965;28;20101;-84
2021/05/20 12:15:28;;;;;;;9.88;5.90;;;17.60;69.50;;;;;;5090598;28;20116;-85
2021/05/20 12:17:59;;;;;;;9.13;5.65;;;17.60;68.30;;;;;;5090924;28;20048;-84
2021/05/20 12:20:24;;;;;;;8.13;5.25;;;17.60;69.80;;;;;;5091030;28;20587;-83
2021/05/20 12:22:52;;;;;;;10.18;6.30;;;17.60;70.50;;;;;;5091242;28;20068;-86
2021/05/20 12:25:24;;;;;;;6.78;4.90;;;17.60;72.00;;;;;;5091620;28;20055;-85
2021/05/20 12:27:51;;;;;;;9.02;4.78;;;17.70;70.30;;;;;;5091523;28;20066;-85
2021/05/20 12:30:25;;;;;;;8.32;5.32;;;17.70;67.90;;;;;;5077150;28;20048;-84
2021/05/20 12:33:08;;;;;;;6.55;4.35;;;17.70;70.10;;;;;;5091701;28;20044;-84
2021/05/20 12:35:42;;;;;;;9.82;4.50;;;17.80;68.40;;;;;;5090201;28;20054;-84
2021/05/20 12:38:12;;;;;;;9.77;4.82;;;17.70;68.40;;;;;;5091551;28;20483;-84
2021/05/20 12:40:39;;;;;;;7.50;4.80;;;17.80;67.80;;;;;;5090542;28;20465;-85
2021/05/20 12:43:28;;;;;;;7.07;3.97;;;17.80;69.70;;;;;;5089906;28;20558;-84
2021/05/20 12:46:06;;;;;;;6.00;4.30;;;17.90;69.30;;;;;;5088537;28;20135;-85
2021/05/20 12:48:37;;;;;;;6.72;3.85;;;17.90;70.70;;;;;;5090936;28;20054;-84
2021/05/20 12:51:14;;;;;;;7.20;4.10;;;17.90;68.70;;;;;;5082649;28;20118;-85
2021/05/20 12:53:50;;;;;;;7.28;4.07;;;17.90;69.90;;;;;;5091851;28;20488;-85
2021/05/20 12:56:25;;;;;;;6.18;3.78;;;17.90;71.40;;;;;;5085218;28;20079;-84
2021/05/20 12:58:53;;;;;;;7.00;2.97;;;18.00;70.10;;;;;;5084390;28;20127;-85
2021/05/20 13:01:21;;;;;;;7.07;3.50;;;18.00;68.70;;;;;;5094543;28;20058;-84
2021/05/20 13:03:49;;;;;;;5.97;3.67;;;18.00;66.20;;;;;;5089363;28;20058;-84